createdAt,value
2019-04-22T00:01:16.417Z,102394.03
2019-04-22T00:03:49.989Z,102390.30
2019-04-22T00:06:32.776Z,102393.53
2019-04-22T00:09:11.214Z,102385.85
2019-04-22T00:11:35.512Z,102385.85
2019-04-22T00:14:10.563Z,102386.09
2019-04-22T00:16:46.914Z,102385.16
2019-04-22T00:21:48.994Z,102389.63
2019-04-22T00:24:11.986Z,102393.44
2019-04-22T00:26:44.025Z,102404.16
2019-04-22T00:29:39.258Z,102404.69
2019-04-22T00:32:05.238Z,102408.09
2019-04-22T00:34:40.869Z,102403.88
2019-04-22T00:37:11.695Z,102406.14
2019-04-22T00:42:17.892Z,102406.34
2019-04-22T00:44:45.389Z,102403.13
2019-04-22T00:47:26.678Z,102409.97
2019-04-22T00:52:16.622Z,102413.65
2019-04-22T00:54:53.253Z,102412.94
2019-04-22T00:57:21.566Z,102413.27
2019-04-22T00:59:52.237Z,102413.50
2019-04-22T01:02:27.175Z,102422.36
2019-04-22T01:04:56.972Z,102415.23
2019-04-22T01:07:23.826Z,102416.80
2019-04-22T01:09:58.639Z,102413.23
2019-04-22T01:12:28.401Z,102416.09
2019-04-22T01:15:01.104Z,102417.87
2019-04-22T01:17:35.930Z,102422.91
2019-04-22T01:20:04.995Z,102419.95
2019-04-22T01:22:29.376Z,102413.75
2019-04-22T01:25:01.928Z,102413.95
2019-04-22T01:27:33.432Z,102414.19
2019-04-22T01:29:59.763Z,102409.80
2019-04-22T01:32:22.917Z,102405.86
2019-04-22T01:35:02.379Z,102411.91
2019-04-22T01:37:34.582Z,102414.19
2019-04-22T01:40:19.497Z,102413.17
2019-04-22T01:42:48.540Z,102411.50
2019-04-22T01:45:17.766Z,102411.27
2019-04-22T01:47:49.238Z,102405.20
2019-04-22T01:50:22.537Z,102400.69
2019-04-22T01:52:54.577Z,102404.98
2019-04-22T01:55:27.724Z,102410.27
2019-04-22T01:57:51.582Z,102420.14
2019-04-22T02:00:16.395Z,102421.94
2019-04-22T02:02:59.231Z,102417.23
2019-04-22T02:05:24.417Z,102420.31
2019-04-22T02:07:58.010Z,102417.27
2019-04-22T02:10:34.697Z,102411.92
2019-04-22T02:13:02.012Z,102410.56
2019-04-22T02:15:31.669Z,102412.87
2019-04-22T02:18:10.732Z,102411.50
2019-04-22T02:20:41.064Z,102405.05
2019-04-22T02:26:01.210Z,102401.28
2019-04-22T02:28:38.332Z,102397.83
2019-04-22T02:31:23.537Z,102403.50
2019-04-22T02:43:55.373Z,102413.59
2019-04-22T02:51:16.385Z,102413.82
2019-04-22T02:56:27.111Z,102408.24
2019-04-22T03:04:00.635Z,102413.63
2019-04-22T03:19:05.872Z,102412.69
2019-04-22T03:21:29.982Z,102411.43
2019-04-22T03:26:31.759Z,102415.53
2019-04-22T03:29:07.471Z,102420.91
2019-04-22T03:39:45.912Z,102416.98
2019-04-22T03:42:05.716Z,102418.64
2019-04-22T03:47:11.682Z,102423.95
2019-04-22T03:54:47.706Z,102430.14
2019-04-22T04:02:15.704Z,102422.40
2019-04-22T04:07:20.148Z,102420.89
2019-04-22T04:09:49.952Z,102423.96
2019-04-22T04:15:05.505Z,102425.22
2019-04-22T04:22:30.679Z,102432.72
2019-04-22T04:25:22.078Z,102437.01
2019-04-22T04:30:12.120Z,102437.59
2019-04-22T04:32:41.653Z,102447.06
2019-04-22T04:35:16.921Z,102442.10
2019-04-22T04:37:41.780Z,102442.63
2019-04-22T04:47:43.566Z,102439.02
2019-04-22T04:50:06.932Z,102439.22
2019-04-22T04:55:12.352Z,102434.63
2019-04-22T05:00:31.960Z,102443.51
2019-04-22T05:03:10.595Z,102441.78
2019-04-22T05:05:12.376Z,102441.81
2019-04-22T05:07:44.315Z,102446.91
2019-04-22T05:10:35.107Z,102448.24
2019-04-22T05:15:15.398Z,102445.05
2019-04-22T05:17:43.908Z,102442.14
2019-04-22T05:22:39.726Z,102443.87
2019-04-22T05:25:11.751Z,102439.72
2019-04-22T05:30:23.381Z,102440.23
2019-04-22T05:32:44.616Z,102449.08
2019-04-22T05:35:14.464Z,102449.72
2019-04-22T05:37:49.953Z,102456.30
2019-04-22T05:40:20.141Z,102459.38
2019-04-22T05:42:52.833Z,102471.21
2019-04-22T05:45:23.236Z,102463.26
2019-04-22T05:47:51.990Z,102471.86
2019-04-22T05:50:20.467Z,102478.71
2019-04-22T05:52:57.059Z,102477.27
2019-04-22T05:55:30.469Z,102485.05
2019-04-22T05:58:08.995Z,102484.28
2019-04-22T06:01:00.774Z,102489.43
2019-04-22T06:05:35.936Z,102492.75
2019-04-22T06:08:04.128Z,102489.56
2019-04-22T06:10:39.349Z,102490.33
2019-04-22T06:13:06.719Z,102487.28
2019-04-22T06:15:52.926Z,102501.11
2019-04-22T06:18:16.125Z,102497.35
2019-04-22T06:20:56.967Z,102497.34
2019-04-22T06:23:25.648Z,102501.10
2019-04-22T06:28:29.100Z,102501.22
2019-04-22T06:30:57.520Z,102497.19
2019-04-22T06:33:31.615Z,102507.63
2019-04-22T06:35:58.916Z,102503.02
2019-04-22T06:38:34.018Z,102502.62
2019-04-22T06:41:04.437Z,102506.50
2019-04-22T06:43:28.286Z,102508.82
2019-04-22T06:46:06.291Z,102502.36
2019-04-22T06:48:31.688Z,102504.60
2019-04-22T06:51:05.166Z,102501.69
2019-04-22T06:53:34.405Z,102510.98
2019-04-22T06:56:11.397Z,102505.34
2019-04-22T06:58:36.744Z,102508.13
2019-04-22T07:01:09.482Z,102511.37
2019-04-22T07:03:53.662Z,102513.35
2019-04-22T07:06:17.503Z,102512.45
2019-04-22T07:09:05.993Z,102517.94
2019-04-22T07:11:05.742Z,102514.92
2019-04-22T07:13:43.427Z,102521.99
2019-04-22T07:16:18.602Z,102525.55
2019-04-22T07:21:12.509Z,102544.05
2019-04-22T07:23:51.279Z,102529.98
2019-04-22T07:26:13.959Z,102535.78
2019-04-22T07:28:49.048Z,102532.94
2019-04-22T07:31:20.645Z,102541.34
2019-04-22T07:33:58.371Z,102543.98
2019-04-22T07:38:49.155Z,102561.27
2019-04-22T07:41:27.378Z,102557.09
2019-04-22T07:46:26.332Z,102551.43
2019-04-22T07:48:59.434Z,102562.09
2019-04-22T07:51:32.632Z,102557.98
2019-04-22T07:54:03.126Z,102555.43
2019-04-22T07:56:34.796Z,102557.72
2019-04-22T07:59:03.476Z,102558.25
2019-04-22T08:01:30.503Z,102562.91
2019-04-22T08:06:38.502Z,102561.27
2019-04-22T08:09:13.806Z,102565.13
2019-04-22T08:14:14.956Z,102571.70
2019-04-22T08:16:45.168Z,102574.34
2019-04-22T08:19:15.843Z,102572.80
2019-04-22T08:21:49.051Z,102579.36
2019-04-22T08:24:18.411Z,102574.23
2019-04-22T08:26:45.385Z,102580.49
2019-04-22T08:29:19.114Z,102573.27
2019-04-22T08:31:48.807Z,102573.33
2019-04-22T08:34:20.827Z,102570.16
2019-04-22T08:37:22.809Z,102571.76
2019-04-22T08:39:23.200Z,102583.59
2019-04-22T08:41:43.538Z,102579.72
2019-04-22T08:44:27.845Z,102587.31
2019-04-22T08:49:28.722Z,102599.56
2019-04-22T08:51:56.123Z,102595.86
2019-04-22T08:54:33.886Z,102591.56
2019-04-22T08:57:07.231Z,102596.37
2019-04-22T08:59:33.639Z,102596.95
2019-04-22T09:02:09.652Z,102608.91
2019-04-22T09:04:31.380Z,102600.92
2019-04-22T09:07:12.988Z,102608.12
2019-04-22T09:09:42.442Z,102603.03
2019-04-22T09:12:07.861Z,102595.66
2019-04-22T09:17:13.666Z,102591.84
2019-04-22T09:19:35.212Z,102582.84
2019-04-22T09:22:11.270Z,102590.94
2019-04-22T09:24:43.552Z,102590.94
2019-04-22T09:27:18.752Z,102586.98
2019-04-22T09:29:43.069Z,102596.39
2019-04-22T09:32:18.479Z,102587.42
2019-04-22T09:34:46.961Z,102583.14
2019-04-22T09:42:24.065Z,102578.90
2019-04-22T09:45:06.091Z,102576.39
2019-04-22T09:47:24.930Z,102575.43
2019-04-22T09:50:10.006Z,102585.86
2019-04-22T09:52:20.547Z,102584.07
2019-04-22T09:55:03.052Z,102583.90
2019-04-22T09:57:24.609Z,102576.92
2019-04-22T10:00:04.396Z,102579.05
2019-04-22T10:02:34.300Z,102579.53
2019-04-22T10:07:32.462Z,102580.62
2019-04-22T10:10:09.960Z,102579.44
2019-04-22T10:12:36.703Z,102579.44
2019-04-22T10:15:19.700Z,102581.92
2019-04-22T10:17:39.567Z,102585.63
2019-04-22T10:20:05.578Z,102579.80
2019-04-22T10:25:14.554Z,102588.23
2019-04-22T10:27:46.242Z,102586.22
2019-04-22T10:30:16.856Z,102585.86
2019-04-22T10:32:46.081Z,102588.45
2019-04-22T10:35:14.378Z,102583.23
2019-04-22T10:37:40.576Z,102592.06
2019-04-22T10:40:19.556Z,102583.88
2019-04-22T10:42:51.461Z,102577.47
2019-04-22T10:45:21.959Z,102588.11
2019-04-22T10:47:52.263Z,102575.32
2019-04-22T10:50:24.742Z,102567.48
2019-04-22T10:52:55.274Z,102567.48
2019-04-22T10:55:25.440Z,102582.41
2019-04-22T10:57:54.916Z,102581.75
2019-04-22T11:00:24.307Z,102574.80
2019-04-22T11:02:53.866Z,102577.97
2019-04-22T11:05:24.123Z,102580.11
2019-04-22T11:07:57.915Z,102573.05
2019-04-22T11:10:36.955Z,102567.91
2019-04-22T11:12:56.775Z,102568.44
2019-04-22T11:15:26.636Z,102568.27
2019-04-22T11:17:57.650Z,102567.63
2019-04-22T11:20:27.163Z,102569.72
2019-04-22T11:22:56.495Z,102575.83
2019-04-22T11:25:25.801Z,102577.11
2019-04-22T11:27:55.817Z,102583.30
2019-04-22T11:30:28.132Z,102582.59
2019-04-22T11:32:58.293Z,102581.09
2019-04-22T11:35:27.996Z,102575.91
2019-04-22T11:37:57.276Z,102579.86
2019-04-22T11:40:34.568Z,102576.82
2019-04-22T11:42:59.669Z,102578.84
2019-04-22T11:45:29.523Z,102575.45
2019-04-22T11:47:59.510Z,102571.05
2019-04-22T11:50:30.190Z,102577.27
2019-04-22T11:53:00.792Z,102574.64
2019-04-22T11:55:30.915Z,102575.63
2019-04-22T11:58:01.061Z,102570.51
2019-04-22T12:00:33.021Z,102569.92
2019-04-22T12:03:03.200Z,102570.84
2019-04-22T12:05:34.198Z,102578.66
2019-04-22T12:08:04.969Z,102569.66
2019-04-22T12:10:40.911Z,102560.41
2019-04-22T12:13:06.296Z,102561.61
2019-04-22T12:15:37.163Z,102563.23
2019-04-22T12:18:07.365Z,102555.44
2019-04-22T12:20:37.226Z,102558.67
2019-04-22T12:23:07.416Z,102564.42
2019-04-22T12:25:46.439Z,102564.80
2019-04-22T12:28:09.096Z,102562.88
2019-04-22T12:30:39.416Z,102562.05
2019-04-22T12:33:12.643Z,102549.94
2019-04-22T12:35:42.195Z,102553.01
2019-04-22T12:38:14.307Z,102550.46
2019-04-22T12:40:51.305Z,102551.01
2019-04-22T12:43:16.150Z,102550.85
2019-04-22T12:45:45.212Z,102539.33
2019-04-22T12:48:15.062Z,102548.66
2019-04-22T12:50:48.002Z,102550.42
2019-04-22T12:53:18.790Z,102548.23
2019-04-22T12:55:48.087Z,102550.22
2019-04-22T12:58:18.105Z,102552.30
2019-04-22T13:00:48.395Z,102545.45
2019-04-22T13:03:18.286Z,102543.13
2019-04-22T13:05:47.523Z,102544.61
2019-04-22T13:08:19.875Z,102545.63
2019-04-22T13:10:58.698Z,102546.31
2019-04-22T13:13:20.827Z,102540.02
2019-04-22T13:15:51.004Z,102544.94
2019-04-22T13:18:30.988Z,102538.42
2019-04-22T13:20:52.836Z,102534.44
2019-04-22T13:23:22.260Z,102524.52
2019-04-22T13:25:52.630Z,102523.92
2019-04-22T13:28:23.026Z,102525.41
2019-04-22T13:30:52.904Z,102522.55
2019-04-22T13:33:23.212Z,102529.98
2019-04-22T13:35:54.262Z,102526.36
2019-04-22T13:38:24.998Z,102523.13
2019-04-22T13:41:07.295Z,102532.05
2019-04-22T13:43:26.739Z,102519.84
2019-04-22T13:45:56.511Z,102521.11
2019-04-22T13:48:51.045Z,102516.40
2019-04-22T13:54:36.466Z,102523.89
2019-04-22T13:56:19.131Z,102529.05
2019-04-22T13:58:44.800Z,102524.20
2019-04-22T14:01:06.957Z,102514.41
2019-04-22T14:03:54.584Z,102515.89
2019-04-22T14:06:25.058Z,102514.84
2019-04-22T14:08:55.696Z,102514.77
2019-04-22T14:11:35.091Z,102519.37
2019-04-22T14:13:56.756Z,102507.05
2019-04-22T14:16:27.024Z,102507.23
2019-04-22T14:18:57.993Z,102507.59
2019-04-22T14:21:27.736Z,102517.56
2019-04-22T14:23:58.415Z,102509.86
2019-04-22T14:26:41.302Z,102513.97
2019-04-22T14:28:59.945Z,102497.81
2019-04-22T14:31:30.754Z,102499.58
2019-04-22T14:34:04.984Z,102499.11
2019-04-22T14:36:31.194Z,102500.44
2019-04-22T14:39:01.922Z,102500.41
2019-04-22T14:41:43.562Z,102498.44
2019-04-22T14:45:04.929Z,102502.56
2019-04-22T14:47:03.479Z,102501.80
2019-04-22T14:49:28.282Z,102493.94
2019-04-22T14:51:58.770Z,102495.59
2019-04-22T14:54:25.570Z,102491.16
2019-04-22T14:56:38.278Z,102496.39
2019-04-22T14:59:09.195Z,102501.05
2019-04-22T15:01:41.407Z,102493.53
2019-04-22T15:04:10.907Z,102500.78
2019-04-22T15:06:43.106Z,102494.98
2019-04-22T15:09:12.236Z,102493.27
2019-04-22T15:11:50.767Z,102494.39
2019-04-22T15:14:12.734Z,102486.31
2019-04-22T15:17:07.145Z,102489.24
2019-04-22T15:19:54.283Z,102483.01
2019-04-22T15:22:23.611Z,102479.30
2019-04-22T15:24:54.201Z,102478.17
2019-04-22T15:27:26.132Z,102477.73
2019-04-22T15:29:54.878Z,102483.23
2019-04-22T15:32:25.272Z,102482.86
2019-04-22T15:34:55.385Z,102477.13
2019-04-22T15:37:24.721Z,102475.16
2019-04-22T15:39:56.684Z,102478.89
2019-04-22T15:42:28.720Z,102475.69
2019-04-22T15:44:56.102Z,102474.50
2019-04-22T15:47:26.903Z,102466.20
2019-04-22T15:49:58.243Z,102468.77
2019-04-22T15:52:32.075Z,102477.33
2019-04-22T15:54:58.725Z,102478.58
2019-04-22T15:57:28.899Z,102476.08
2019-04-22T16:00:14.432Z,102466.81
2019-04-22T16:02:29.799Z,102474.98
2019-04-22T16:04:59.176Z,102476.67
2019-04-22T16:07:29.765Z,102478.34
2019-04-22T16:09:59.607Z,102490.94
2019-04-22T16:12:37.728Z,102488.14
2019-04-22T16:15:03.068Z,102487.05
2019-04-22T16:17:32.686Z,102484.60
2019-04-22T16:20:03.551Z,102485.70
2019-04-22T16:22:51.967Z,102485.49
2019-04-22T16:25:38.833Z,102484.20
2019-04-22T16:28:08.927Z,102483.08
2019-04-22T16:30:39.477Z,102493.45
2019-04-22T16:33:09.915Z,102486.95
2019-04-22T16:35:40.541Z,102487.28
2019-04-22T16:38:10.871Z,102485.20
2019-04-22T16:40:40.897Z,102481.20
2019-04-22T16:43:11.953Z,102482.95
2019-04-22T16:45:41.296Z,102487.08
2019-04-22T16:48:11.582Z,102480.61
2019-04-22T16:50:42.838Z,102478.16
2019-04-22T16:53:13.828Z,102474.61
2019-04-22T16:55:44.574Z,102480.86
2019-04-22T16:58:14.777Z,102492.33
2019-04-22T17:00:45.054Z,102481.05
2019-04-22T17:03:32.359Z,102482.34
2019-04-22T17:06:17.415Z,102475.24
2019-04-22T17:08:46.899Z,102475.41
2019-04-22T17:11:16.291Z,102470.93
2019-04-22T17:13:46.532Z,102469.24
2019-04-22T17:16:18.053Z,102471.45
2019-04-22T17:18:47.523Z,102469.00
2019-04-22T17:21:17.583Z,102478.61
2019-04-22T17:23:47.611Z,102480.38
2019-04-22T17:26:16.924Z,102474.03
2019-04-22T17:28:46.236Z,102471.09
2019-04-22T17:31:16.456Z,102473.05
2019-04-22T17:33:46.725Z,102465.52
2019-04-22T17:36:16.495Z,102475.57
2019-04-22T17:38:55.008Z,102463.52
2019-04-22T17:41:28.821Z,102463.44
2019-04-22T17:44:12.249Z,102463.83
2019-04-22T17:46:57.701Z,102462.52
2019-04-22T17:49:43.067Z,102466.97
2019-04-22T17:54:50.186Z,102469.77
2019-04-22T17:57:21.731Z,102471.89
2019-04-22T17:59:50.610Z,102471.69
2019-04-22T18:02:22.352Z,102466.34
2019-04-22T18:04:45.471Z,102470.08
2019-04-22T18:07:41.167Z,102473.50
2019-04-22T18:10:24.266Z,102472.67
2019-04-22T18:12:40.057Z,102475.56
2019-04-22T18:15:04.321Z,102473.80
2019-04-22T18:17:35.520Z,102466.70
2019-04-22T18:19:58.327Z,102469.29
2019-04-22T18:22:27.396Z,102478.59
2019-04-22T18:24:58.363Z,102483.75
2019-04-22T18:30:03.927Z,102481.69
2019-04-22T18:32:38.088Z,102478.41
2019-04-22T18:35:10.433Z,102480.55
2019-04-22T18:37:43.759Z,102482.13
2019-04-22T18:40:15.022Z,102480.25
2019-04-22T18:42:42.011Z,102477.66
2019-04-22T18:45:29.749Z,102480.25
2019-04-22T18:47:43.638Z,102482.27
2019-04-22T18:50:24.621Z,102488.34
2019-04-22T18:53:23.466Z,102486.34
2019-04-22T18:55:57.095Z,102491.98
2019-04-22T18:58:27.514Z,102491.53
2019-04-22T19:00:43.951Z,102491.48
2019-04-22T19:03:19.651Z,102489.88
2019-04-22T19:06:21.614Z,102489.52
2019-04-22T19:08:36.589Z,102497.60
2019-04-22T19:11:20.875Z,102506.43
2019-04-22T19:21:13.420Z,102500.39
2019-04-22T19:23:44.849Z,102504.84
2019-04-22T19:26:23.221Z,102504.54
2019-04-22T19:28:48.343Z,102507.33
2019-04-22T19:31:19.162Z,102506.08
2019-04-22T19:33:56.342Z,102505.02
2019-04-22T19:36:21.009Z,102507.19
2019-04-22T19:38:49.780Z,102514.34
2019-04-22T19:41:26.432Z,102513.66
2019-04-22T19:43:58.117Z,102514.91
2019-04-22T19:46:22.137Z,102504.39
2019-04-22T19:48:57.994Z,102507.78
2019-04-22T19:53:56.029Z,102504.04
2019-04-22T19:56:25.375Z,102507.02
2019-04-22T19:58:57.459Z,102509.58
2019-04-22T20:01:41.674Z,102509.17
2019-04-22T20:06:55.165Z,102513.43
2019-04-22T20:09:39.730Z,102514.41
2019-04-22T20:12:02.540Z,102514.27
2019-04-22T20:14:37.377Z,102512.54
2019-04-22T20:16:58.523Z,102511.57
2019-04-22T20:19:41.559Z,102504.32
2019-04-22T20:22:03.041Z,102503.77
2019-04-22T20:24:21.709Z,102497.87
2019-04-22T20:27:10.597Z,102493.73
2019-04-22T20:29:43.374Z,102488.24
2019-04-22T20:32:10.976Z,102485.13
2019-04-22T20:34:44.356Z,102482.31
2019-04-22T20:37:20.706Z,102480.27
2019-04-22T20:39:48.813Z,102489.72
2019-04-22T20:44:47.291Z,102487.81
2019-04-22T20:47:16.491Z,102491.48
2019-04-22T20:49:48.860Z,102495.98
2019-04-22T20:52:33.130Z,102488.50
2019-04-22T20:54:49.065Z,102492.70
2019-04-22T20:57:17.343Z,102493.16
2019-04-22T20:59:48.412Z,102491.24
2019-04-22T21:02:16.401Z,102496.29
2019-04-22T21:04:44.134Z,102497.06
2019-04-22T21:07:19.545Z,102497.36
2019-04-22T21:09:56.616Z,102495.34
2019-04-22T21:12:21.183Z,102498.96
2019-04-22T21:15:05.560Z,102506.54
2019-04-22T21:17:30.965Z,102501.55
2019-04-22T21:20:09.494Z,102506.09
2019-04-22T21:22:33.845Z,102502.63
2019-04-22T21:25:00.615Z,102506.39
2019-04-22T21:27:35.731Z,102497.50
2019-04-22T21:29:58.674Z,102499.88
2019-04-22T21:32:34.197Z,102498.83
2019-04-22T21:35:12.051Z,102507.66
2019-04-22T21:37:43.114Z,102499.72
2019-04-22T21:40:08.307Z,102497.19
2019-04-22T21:42:47.215Z,102502.84
2019-04-22T21:45:07.352Z,102488.38
2019-04-22T21:47:51.796Z,102487.03
2019-04-22T21:52:54.553Z,102494.59
2019-04-22T21:55:16.467Z,102489.46
2019-04-22T21:58:05.134Z,102488.15
2019-04-22T22:03:10.903Z,102488.38
2019-04-22T22:05:28.823Z,102489.62
2019-04-22T22:07:57.226Z,102477.98
2019-04-22T22:10:41.586Z,102492.67
2019-04-22T22:13:13.835Z,102494.42
2019-04-22T22:15:46.564Z,102489.28
2019-04-22T22:18:08.741Z,102478.28
2019-04-22T22:20:51.149Z,102478.50
2019-04-22T22:23:22.348Z,102469.06
2019-04-22T22:25:44.125Z,102478.80
2019-04-22T22:28:33.181Z,102482.66
2019-04-22T22:33:17.583Z,102489.14
2019-04-22T22:35:45.659Z,102476.38
2019-04-22T22:38:19.596Z,102471.87
2019-04-22T22:40:35.922Z,102459.51
2019-04-22T22:43:11.785Z,102466.66
2019-04-22T22:45:41.308Z,102466.39
2019-04-22T22:48:26.677Z,102464.89
2019-04-22T22:50:52.195Z,102465.29
2019-04-22T22:53:37.185Z,102460.17
2019-04-22T22:56:00.452Z,102459.81
2019-04-22T22:58:32.781Z,102461.02
2019-04-22T23:00:58.403Z,102456.80
2019-04-22T23:03:45.638Z,102464.59
2019-04-22T23:06:03.187Z,102451.98
2019-04-22T23:08:51.794Z,102456.63
2019-04-22T23:11:05.393Z,102453.59
2019-04-22T23:13:35.969Z,102451.41
2019-04-22T23:16:01.016Z,102444.56
2019-04-22T23:18:17.166Z,102447.53
2019-04-22T23:20:49.609Z,102444.47
2019-04-22T23:23:41.003Z,102444.86
2019-04-22T23:26:06.117Z,102448.31
2019-04-22T23:28:57.649Z,102441.60
2019-04-22T23:31:43.409Z,102440.06
2019-04-22T23:34:21.817Z,102436.30
2019-04-22T23:37:16.684Z,102441.55
2019-04-22T23:42:23.592Z,102440.74
2019-04-22T23:45:00.364Z,102444.34
2019-04-22T23:47:29.859Z,102437.61
2019-04-22T23:50:08.840Z,102438.67
2019-04-22T23:53:00.682Z,102436.98
2019-04-22T23:55:33.837Z,102433.00
2019-04-22T23:58:03.486Z,102432.28
